PWSweather.com
Personal Weather Stations
Station Observations
BARMORENO
El Ranal, Torre Del CampoES 23640

El RanalTorre Del CampoES 23640

Lat: 37.7683675, Lon: -3.9027072

Elevation: 2198.162

Station Type: PCE-FWS 20

http://www.bartolomemoreno.com/tiempo

Latest ConditionsUpdated 9:50:05 PM GMT+01:01 Wednesday, Apr 24, 2019
Currently Today's Max Today's Min Today's Average
Temperature 55.4°F13.0°C 60.4°F15.8°C 42.6°F5.9°C 52.4°F11.3°C
Dew Point 49.0°F9.4°C 49.5°F9.7°C 41.4°F5.2°C 45.4°F7.4°C
Winds 12.3 mph W19.8 kmh W 17.0 mph -27.4 kmh - - 10.4 mph 16.7 kmh
Wind Gusts 23.5 mph37.8 kmh 37.4 mph60.2 kmh - -
Humidity 79% 100% 59% 78%
Pressure 29.80 in1009.1 mb 29.80 in1009.1 mb 29.68 in1005.1 mb -
Hour Temp Dew Point Humidity Winds Wind Gusts Pressure Precip Precip Rate Daily Precip Total
09:50 PM 55.4°F13.0°C 49.0°F9.4°C 79% 12.3 mph W19.8 kmh W 23.5 mph37.8 kmh 29.80 in1009.1 mb 0.00 in0.0 mm 0.00 in0.0 mm 0.26 in6.6 mm
09:45 PM 55.2°F12.9°C 49.5°F9.7°C 81% 12.8 mph W20.6 kmh W 22.8 mph36.7 kmh 29.80 in1009.1 mb 0.00 in0.0 mm 0.00 in0.0 mm 0.26 in6.6 mm
09:40 PM 55.0°F12.8°C 49.3°F9.6°C 81% 12.2 mph WSW19.6 kmh WSW 24.4 mph39.3 kmh 29.80 in1009.1 mb 0.00 in0.0 mm 0.00 in0.0 mm 0.26 in6.6 mm
09:35 PM 55.0°F12.8°C 49.3°F9.6°C 81% 12.1 mph SW19.5 kmh SW 25.9 mph41.7 kmh 29.80 in1009.1 mb 0.00 in0.0 mm 0.00 in0.0 mm 0.26 in6.6 mm
09:30 PM 55.2°F12.9°C 49.5°F9.7°C 81% 12.0 mph SW19.3 kmh SW 25.9 mph41.7 kmh 29.80 in1009.1 mb 0.00 in0.0 mm 0.00 in0.0 mm 0.26 in6.6 mm
09:25 PM 55.4°F13.0°C 49.0°F9.4°C 79% 10.7 mph WSW17.2 kmh WSW 23.5 mph37.8 kmh 29.80 in1009.1 mb 0.00 in0.0 mm 0.00 in0.0 mm 0.26 in6.6 mm
09:20 PM 55.4°F13.0°C 48.7°F9.3°C 78% 10.6 mph SW17.1 kmh SW 22.1 mph35.6 kmh 29.79 in1008.8 mb 0.00 in0.0 mm 0.00 in0.0 mm 0.26 in6.6 mm
09:15 PM 55.8°F13.2°C 49.0°F9.4°C 78% 11.0 mph SW17.7 kmh SW 22.1 mph35.6 kmh 29.79 in1008.8 mb 0.00 in0.0 mm 0.00 in0.0 mm 0.26 in6.6 mm
09:10 PM 55.8°F13.2°C 48.7°F9.3°C 77% 11.1 mph SW17.9 kmh SW 23.5 mph37.8 kmh 29.79 in1008.8 mb 0.00 in0.0 mm 0.00 in0.0 mm 0.26 in6.6 mm
09:05 PM 56.1°F13.4°C 49.0°F9.4°C 77% 11.8 mph SW19.0 kmh SW 23.5 mph37.8 kmh 29.79 in1008.8 mb 0.00 in0.0 mm 0.00 in0.0 mm 0.26 in6.6 mm
09:00 PM 56.3°F13.5°C 48.8°F9.3°C 76% 13.7 mph SW22.0 kmh SW 28.2 mph45.4 kmh 29.79 in1008.8 mb 0.00 in0.0 mm 0.00 in0.0 mm 0.26 in6.6 mm
08:55 PM 56.3°F13.5°C 49.2°F9.6°C 77% 13.5 mph WSW21.7 kmh WSW 28.2 mph45.4 kmh 29.79 in1008.8 mb 0.00 in0.0 mm 0.00 in0.0 mm 0.26 in6.6 mm
08:50 PM 55.9°F13.3°C 49.2°F9.6°C 78% 12.9 mph SSW20.8 kmh SSW 27.3 mph43.9 kmh 29.78 in1008.5 mb 0.00 in0.0 mm 0.00 in0.0 mm 0.26 in6.6 mm
08:45 PM 55.8°F13.2°C 49.4°F9.7°C 79% 10.7 mph S17.2 kmh S 27.3 mph43.9 kmh 29.78 in1008.5 mb 0.00 in0.0 mm 0.00 in0.0 mm 0.26 in6.6 mm
08:40 PM 55.6°F13.1°C 49.2°F9.6°C 79% 8.7 mph S14.0 kmh S 19.0 mph30.6 kmh 29.79 in1008.8 mb 0.00 in0.0 mm 0.00 in0.0 mm 0.26 in6.6 mm
08:35 PM 55.8°F13.2°C 49.0°F9.4°C 78% 10.6 mph SSW17.1 kmh SSW 26.6 mph42.8 kmh 29.79 in1008.8 mb 0.00 in0.0 mm 0.00 in0.0 mm 0.26 in6.6 mm
08:30 PM 56.1°F13.4°C 49.0°F9.4°C 77% 12.9 mph SW20.8 kmh SW 26.6 mph42.8 kmh 29.78 in1008.5 mb 0.00 in0.0 mm 0.00 in0.0 mm 0.26 in6.6 mm
08:25 PM 56.3°F13.5°C 49.2°F9.6°C 77% 14.5 mph WSW23.3 kmh WSW 25.9 mph41.7 kmh 29.78 in1008.5 mb 0.00 in0.0 mm 0.00 in0.0 mm 0.26 in6.6 mm
08:20 PM 56.3°F13.5°C 48.8°F9.3°C 76% 14.1 mph WSW22.7 kmh WSW 25.9 mph41.7 kmh 29.78 in1008.5 mb 0.00 in0.0 mm 0.00 in0.0 mm 0.26 in6.6 mm
08:15 PM 56.3°F13.5°C 49.2°F9.6°C 77% 13.1 mph WSW21.1 kmh WSW 26.6 mph42.8 kmh 29.78 in1008.5 mb 0.00 in0.0 mm 0.00 in0.0 mm 0.26 in6.6 mm
08:10 PM 56.1°F13.4°C 49.0°F9.4°C 77% 13.3 mph W21.4 kmh W 26.6 mph42.8 kmh 29.78 in1008.5 mb 0.00 in0.0 mm 0.00 in0.0 mm 0.26 in6.6 mm
08:05 PM 56.1°F13.4°C 49.0°F9.4°C 77% 13.4 mph WSW21.6 kmh WSW 24.4 mph39.3 kmh 29.77 in1008.1 mb 0.00 in0.0 mm 0.00 in0.0 mm 0.26 in6.6 mm
08:00 PM 56.3°F13.5°C 49.2°F9.6°C 77% 13.0 mph SW20.9 kmh SW 25.1 mph40.4 kmh 29.77 in1008.1 mb 0.00 in0.0 mm 0.00 in0.0 mm 0.26 in6.6 mm
07:55 PM 56.7°F13.7°C 49.2°F9.6°C 76% 14.7 mph SSW23.7 kmh SSW 37.4 mph60.2 kmh 29.77 in1008.1 mb 0.00 in0.0 mm 0.00 in0.0 mm 0.26 in6.6 mm
07:50 PM 57.0°F13.9°C 49.2°F9.6°C 75% 14.7 mph SW23.7 kmh SW 37.4 mph60.2 kmh 29.78 in1008.5 mb 0.00 in0.0 mm 0.00 in0.0 mm 0.26 in6.6 mm
07:45 PM 57.0°F13.9°C 49.2°F9.6°C 75% 13.0 mph SW20.9 kmh SW 25.1 mph40.4 kmh 29.77 in1008.1 mb 0.00 in0.0 mm 0.00 in0.0 mm 0.26 in6.6 mm
07:40 PM 57.0°F13.9°C 49.2°F9.6°C 75% 11.8 mph W19.0 kmh W 25.1 mph40.4 kmh 29.77 in1008.1 mb 0.00 in0.0 mm 0.00 in0.0 mm 0.26 in6.6 mm
07:35 PM 56.8°F13.8°C 49.0°F9.4°C 75% 11.7 mph W18.8 kmh W 28.2 mph45.4 kmh 29.77 in1008.1 mb 0.00 in0.0 mm 0.00 in0.0 mm 0.26 in6.6 mm
07:30 PM 57.0°F13.9°C 49.2°F9.6°C 75% 13.7 mph WSW22.0 kmh WSW 28.2 mph45.4 kmh 29.76 in1007.8 mb 0.00 in0.0 mm 0.00 in0.0 mm 0.26 in6.6 mm
07:25 PM 57.2°F14.0°C 48.6°F9.2°C 73% 15.9 mph W25.6 kmh W 27.3 mph43.9 kmh 29.76 in1007.8 mb 0.00 in0.0 mm 0.00 in0.0 mm 0.26 in6.6 mm
07:20 PM 57.2°F14.0°C 48.6°F9.2°C 73% 16.7 mph W26.9 kmh W 24.4 mph39.3 kmh 29.77 in1008.1 mb 0.00 in0.0 mm 0.00 in0.0 mm 0.26 in6.6 mm
07:15 PM 57.4°F14.1°C 48.8°F9.3°C 73% 16.6 mph SW26.7 kmh SW 26.6 mph42.8 kmh 29.77 in1008.1 mb 0.00 in0.0 mm 0.00 in0.0 mm 0.26 in6.6 mm
07:10 PM 57.2°F14.0°C 48.6°F9.2°C 73% 14.5 mph SW23.3 kmh SW 26.6 mph42.8 kmh 29.77 in1008.1 mb 0.00 in0.0 mm 0.00 in0.0 mm 0.26 in6.6 mm
07:05 PM 57.2°F14.0°C 48.6°F9.2°C 73% 12.9 mph SW20.8 kmh SW 22.1 mph35.6 kmh 29.77 in1008.1 mb 0.00 in0.0 mm 0.00 in0.0 mm 0.26 in6.6 mm
06:55 PM 57.4°F14.1°C 48.8°F9.3°C 73% 10.2 mph SW16.4 kmh SW 19.0 mph30.6 kmh 29.77 in1008.1 mb 0.00 in0.0 mm 0.00 in0.0 mm 0.26 in6.6 mm
06:45 PM 57.6°F14.2°C 48.6°F9.2°C 72% 11.8 mph SW19.0 kmh SW 21.3 mph34.3 kmh 29.76 in1007.8 mb 0.00 in0.0 mm 0.00 in0.0 mm 0.26 in6.6 mm
06:40 PM 57.6°F14.2°C 48.6°F9.2°C 72% 13.4 mph SW21.6 kmh SW 22.8 mph36.7 kmh 29.76 in1007.8 mb 0.00 in0.0 mm 0.00 in0.0 mm 0.26 in6.6 mm
06:35 PM 57.6°F14.2°C 48.6°F9.2°C 72% 13.7 mph WSW22.0 kmh WSW 26.6 mph42.8 kmh 29.76 in1007.8 mb 0.00 in0.0 mm 0.00 in0.0 mm 0.26 in6.6 mm
06:30 PM 57.6°F14.2°C 48.6°F9.2°C 72% 15.4 mph SW24.8 kmh SW 34.9 mph56.2 kmh 29.76 in1007.8 mb 0.00 in0.0 mm 0.00 in0.0 mm 0.26 in6.6 mm
06:25 PM 57.6°F14.2°C 48.6°F9.2°C 72% 17.0 mph SW27.4 kmh SW 34.9 mph56.2 kmh 29.76 in1007.8 mb 0.00 in0.0 mm 0.00 in0.0 mm 0.26 in6.6 mm
06:20 PM 57.7°F14.3°C 48.8°F9.3°C 72% 14.3 mph SW23.0 kmh SW 25.9 mph41.7 kmh 29.76 in1007.8 mb 0.00 in0.0 mm 0.00 in0.0 mm 0.26 in6.6 mm
06:15 PM 57.7°F14.3°C 48.8°F9.3°C 72% 12.8 mph WSW20.6 kmh WSW 22.1 mph35.6 kmh 29.76 in1007.8 mb 0.00 in0.0 mm 0.00 in0.0 mm 0.26 in6.6 mm
06:10 PM 57.7°F14.3°C 48.8°F9.3°C 72% 14.5 mph WSW23.3 kmh WSW 28.9 mph46.5 kmh 29.76 in1007.8 mb 0.00 in0.0 mm 0.00 in0.0 mm 0.26 in6.6 mm
06:05 PM 57.7°F14.3°C 48.8°F9.3°C 72% 14.6 mph SW23.5 kmh SW 28.9 mph46.5 kmh 29.76 in1007.8 mb 0.00 in0.0 mm 0.00 in0.0 mm 0.26 in6.6 mm
06:00 PM 57.7°F14.3°C 48.8°F9.3°C 72% 13.8 mph SW22.2 kmh SW 25.1 mph40.4 kmh 29.76 in1007.8 mb 0.00 in0.0 mm 0.00 in0.0 mm 0.26 in6.6 mm
05:55 PM 57.9°F14.4°C 49.0°F9.4°C 72% 13.2 mph WSW21.2 kmh WSW 25.1 mph40.4 kmh 29.76 in1007.8 mb 0.00 in0.0 mm 0.00 in0.0 mm 0.26 in6.6 mm
05:50 PM 57.9°F14.4°C 49.0°F9.4°C 72% 11.3 mph W18.2 kmh W 25.1 mph40.4 kmh 29.76 in1007.8 mb 0.00 in0.0 mm 0.00 in0.0 mm 0.26 in6.6 mm
05:45 PM 57.9°F14.4°C 49.0°F9.4°C 72% 10.6 mph SW17.1 kmh SW 20.6 mph33.2 kmh 29.76 in1007.8 mb 0.00 in0.0 mm 0.00 in0.0 mm 0.26 in6.6 mm
05:40 PM 57.7°F14.3°C 48.4°F9.1°C 71% 12.0 mph SW19.3 kmh SW 22.1 mph35.6 kmh 29.76 in1007.8 mb 0.00 in0.0 mm 0.00 in0.0 mm 0.26 in6.6 mm
05:30 PM 58.1°F14.5°C 48.8°F9.3°C 71% 9.4 mph SW15.1 kmh SW 17.4 mph28.0 kmh 29.76 in1007.8 mb 0.00 in0.0 mm 0.00 in0.0 mm 0.26 in6.6 mm
05:25 PM 58.1°F14.5°C 48.8°F9.3°C 71% 10.1 mph SW16.3 kmh SW 22.1 mph35.6 kmh 29.76 in1007.8 mb 0.00 in0.0 mm 0.00 in0.0 mm 0.26 in6.6 mm
05:20 PM 57.9°F14.4°C 48.6°F9.2°C 71% 10.7 mph SW17.2 kmh SW 22.1 mph35.6 kmh 29.76 in1007.8 mb 0.00 in0.0 mm 0.00 in0.0 mm 0.26 in6.6 mm
05:15 PM 57.9°F14.4°C 48.6°F9.2°C 71% 9.6 mph SW15.4 kmh SW 21.3 mph34.3 kmh 29.75 in1007.5 mb 0.00 in0.0 mm 0.00 in0.0 mm 0.26 in6.6 mm
05:10 PM 58.1°F14.5°C 48.4°F9.1°C 70% 8.5 mph SSW13.7 kmh SSW 21.3 mph34.3 kmh 29.76 in1007.8 mb 0.00 in0.0 mm 0.00 in0.0 mm 0.26 in6.6 mm
05:05 PM 58.1°F14.5°C 48.4°F9.1°C 70% 8.8 mph SW14.2 kmh SW 19.7 mph31.7 kmh 29.75 in1007.5 mb 0.00 in0.0 mm 0.00 in0.0 mm 0.26 in6.6 mm
05:00 PM 58.1°F14.5°C 48.0°F8.9°C 69% 12.3 mph W19.8 kmh W 21.3 mph34.3 kmh 29.75 in1007.5 mb 0.00 in0.0 mm 0.00 in0.0 mm 0.26 in6.6 mm
04:55 PM 58.1°F14.5°C 48.0°F8.9°C 69% 12.5 mph WSW20.1 kmh WSW 22.1 mph35.6 kmh 29.75 in1007.5 mb 0.00 in0.0 mm 0.00 in0.0 mm 0.26 in6.6 mm
04:50 PM 57.9°F14.4°C 47.8°F8.8°C 69% 12.0 mph SW19.3 kmh SW 22.8 mph36.7 kmh 29.75 in1007.5 mb 0.00 in0.0 mm 0.00 in0.0 mm 0.26 in6.6 mm
04:45 PM 57.9°F14.4°C 47.8°F8.8°C 69% 13.7 mph WSW22.0 kmh WSW 28.9 mph46.5 kmh 29.76 in1007.8 mb 0.00 in0.0 mm 0.00 in0.0 mm 0.26 in6.6 mm
04:40 PM 58.1°F14.5°C 47.6°F8.7°C 68% 12.8 mph SW20.6 kmh SW 28.9 mph46.5 kmh 29.76 in1007.8 mb 0.00 in0.0 mm 0.00 in0.0 mm 0.26 in6.6 mm
04:35 PM 58.1°F14.5°C 47.6°F8.7°C 68% 12.2 mph SSW19.6 kmh SSW 21.3 mph34.3 kmh 29.75 in1007.5 mb 0.00 in0.0 mm 0.00 in0.0 mm 0.26 in6.6 mm
04:30 PM 58.1°F14.5°C 47.6°F8.7°C 68% 12.2 mph SSW19.6 kmh SSW 20.6 mph33.2 kmh 29.75 in1007.5 mb 0.00 in0.0 mm 0.00 in0.0 mm 0.26 in6.6 mm
04:25 PM 58.5°F14.7°C 47.9°F8.8°C 68% 10.9 mph SW17.5 kmh SW 20.6 mph33.2 kmh 29.75 in1007.5 mb 0.00 in0.0 mm 0.00 in0.0 mm 0.26 in6.6 mm
04:20 PM 58.8°F14.9°C 48.3°F9.1°C 68% 10.7 mph W17.2 kmh W 19.0 mph30.6 kmh 29.75 in1007.5 mb 0.00 in0.0 mm 0.00 in0.0 mm 0.26 in6.6 mm
04:15 PM 59.0°F15.0°C 47.7°F8.7°C 66% 10.8 mph WSW17.4 kmh WSW 22.8 mph36.7 kmh 29.75 in1007.5 mb 0.00 in0.0 mm 0.00 in0.0 mm 0.26 in6.6 mm
04:10 PM 59.0°F15.0°C 47.3°F8.5°C 65% 12.4 mph SSW20.0 kmh SSW 24.4 mph39.3 kmh 29.74 in1007.1 mb 0.00 in0.0 mm 0.00 in0.0 mm 0.26 in6.6 mm
04:05 PM 59.2°F15.1°C 47.8°F8.8°C 66% 13.1 mph SW21.1 kmh SW 24.4 mph39.3 kmh 29.75 in1007.5 mb 0.00 in0.0 mm 0.00 in0.0 mm 0.26 in6.6 mm
04:00 PM 59.2°F15.1°C 47.4°F8.6°C 65% 13.7 mph SW22.0 kmh SW 30.4 mph48.9 kmh 29.75 in1007.5 mb 0.00 in0.0 mm 0.00 in0.0 mm 0.26 in6.6 mm
03:55 PM 59.2°F15.1°C 47.4°F8.6°C 65% 15.9 mph WSW25.6 kmh WSW 30.4 mph48.9 kmh 29.75 in1007.5 mb 0.00 in0.0 mm 0.00 in0.0 mm 0.26 in6.6 mm
03:50 PM 59.5°F15.3°C 47.4°F8.6°C 64% 14.9 mph W24.0 kmh W 25.1 mph40.4 kmh 29.75 in1007.5 mb 0.00 in0.0 mm 0.00 in0.0 mm 0.26 in6.6 mm
03:45 PM 59.7°F15.4°C 47.5°F8.6°C 64% 14.8 mph SW23.8 kmh SW 28.2 mph45.4 kmh 29.75 in1007.5 mb 0.00 in0.0 mm 0.00 in0.0 mm 0.26 in6.6 mm
03:40 PM 59.7°F15.4°C 47.5°F8.6°C 64% 12.5 mph SW20.1 kmh SW 28.2 mph45.4 kmh 29.75 in1007.5 mb 0.00 in0.0 mm 0.00 in0.0 mm 0.26 in6.6 mm
03:35 PM 59.7°F15.4°C 47.9°F8.8°C 65% 9.1 mph WSW14.6 kmh WSW 22.8 mph36.7 kmh 29.75 in1007.5 mb 0.00 in0.0 mm 0.00 in0.0 mm 0.26 in6.6 mm
03:30 PM 59.7°F15.4°C 47.9°F8.8°C 65% 8.6 mph SW13.8 kmh SW 20.6 mph33.2 kmh 29.75 in1007.5 mb 0.00 in0.0 mm 0.00 in0.0 mm 0.26 in6.6 mm
03:25 PM 59.5°F15.3°C 48.2°F9.0°C 66% 8.3 mph SW13.4 kmh SW 20.6 mph33.2 kmh 29.76 in1007.8 mb 0.00 in0.0 mm 0.00 in0.0 mm 0.26 in6.6 mm
03:20 PM 58.8°F14.9°C 47.9°F8.8°C 67% 10.4 mph SW16.7 kmh SW 19.7 mph31.7 kmh 29.75 in1007.5 mb 0.00 in0.0 mm 0.00 in0.0 mm 0.26 in6.6 mm
03:15 PM 58.6°F14.8°C 47.3°F8.5°C 66% 12.5 mph WSW20.1 kmh WSW 22.1 mph35.6 kmh 29.75 in1007.5 mb 0.00 in0.0 mm 0.00 in0.0 mm 0.26 in6.6 mm
03:10 PM 59.0°F15.0°C 47.3°F8.5°C 65% 12.2 mph WSW19.6 kmh WSW 22.1 mph35.6 kmh 29.76 in1007.8 mb 0.00 in0.0 mm 0.00 in0.0 mm 0.26 in6.6 mm
03:05 PM 59.2°F15.1°C 47.0°F8.3°C 64% 10.4 mph SW16.7 kmh SW 21.3 mph34.3 kmh 29.75 in1007.5 mb 0.00 in0.0 mm 0.00 in0.0 mm 0.26 in6.6 mm
03:00 PM 59.2°F15.1°C 47.0°F8.3°C 64% 10.9 mph SW17.5 kmh SW 23.5 mph37.8 kmh 29.76 in1007.8 mb 0.00 in0.0 mm 0.00 in0.0 mm 0.26 in6.6 mm
02:55 PM 59.0°F15.0°C 46.9°F8.3°C 64% 12.2 mph WSW19.6 kmh WSW 23.5 mph37.8 kmh 29.76 in1007.8 mb 0.00 in0.0 mm 0.00 in0.0 mm 0.26 in6.6 mm
02:50 PM 59.4°F15.2°C 46.8°F8.2°C 63% 12.1 mph SW19.5 kmh SW 24.4 mph39.3 kmh 29.77 in1008.1 mb 0.00 in0.0 mm 0.00 in0.0 mm 0.26 in6.6 mm
02:45 PM 59.5°F15.3°C 46.9°F8.3°C 63% 13.4 mph SW21.6 kmh SW 24.4 mph39.3 kmh 29.76 in1007.8 mb 0.00 in0.0 mm 0.00 in0.0 mm 0.26 in6.6 mm
02:40 PM 60.1°F15.6°C 47.0°F8.3°C 62% 11.7 mph SW18.8 kmh SW 23.5 mph37.8 kmh 29.77 in1008.1 mb 0.00 in0.0 mm 0.00 in0.0 mm 0.26 in6.6 mm
02:35 PM 60.4°F15.8°C 47.8°F8.8°C 63% 11.3 mph WSW18.2 kmh WSW 22.1 mph35.6 kmh 29.76 in1007.8 mb 0.00 in0.0 mm 0.00 in0.0 mm 0.26 in6.6 mm
02:30 PM 60.3°F15.7°C 47.2°F8.4°C 62% 13.1 mph WSW21.1 kmh WSW 22.1 mph35.6 kmh 29.76 in1007.8 mb 0.00 in0.0 mm 0.00 in0.0 mm 0.26 in6.6 mm
02:25 PM 60.4°F15.8°C 46.9°F8.3°C 61% 12.6 mph SW20.3 kmh SW 21.3 mph34.3 kmh 29.76 in1007.8 mb 0.00 in0.0 mm 0.00 in0.0 mm 0.26 in6.6 mm
02:20 PM 60.4°F15.8°C 47.4°F8.6°C 62% 14.9 mph SW24.0 kmh SW 26.6 mph42.8 kmh 29.76 in1007.8 mb 0.00 in0.0 mm 0.00 in0.0 mm 0.26 in6.6 mm
02:15 PM 59.7°F15.4°C 46.7°F8.2°C 62% 17.0 mph SW27.4 kmh SW 30.4 mph48.9 kmh 29.76 in1007.8 mb 0.00 in0.0 mm 0.00 in0.0 mm 0.26 in6.6 mm
02:10 PM 59.7°F15.4°C 46.3°F7.9°C 61% 15.8 mph SW25.4 kmh SW 30.4 mph48.9 kmh 29.76 in1007.8 mb 0.00 in0.0 mm 0.00 in0.0 mm 0.26 in6.6 mm
02:05 PM 59.9°F15.5°C 46.4°F8.0°C 61% 14.4 mph WSW23.2 kmh WSW 27.3 mph43.9 kmh 29.76 in1007.8 mb 0.00 in0.0 mm 0.00 in0.0 mm 0.26 in6.6 mm
02:00 PM 59.7°F15.4°C 46.3°F7.9°C 61% 13.4 mph WSW21.6 kmh WSW 22.1 mph35.6 kmh 29.76 in1007.8 mb 0.00 in0.0 mm 0.00 in0.0 mm 0.26 in6.6 mm
01:55 PM 59.7°F15.4°C 45.8°F7.7°C 60% 13.6 mph SW21.9 kmh SW 22.1 mph35.6 kmh 29.76 in1007.8 mb 0.00 in0.0 mm 0.00 in0.0 mm 0.26 in6.6 mm
01:50 PM 59.9°F15.5°C 46.0°F7.8°C 60% 14.2 mph SW22.9 kmh SW 23.5 mph37.8 kmh 29.76 in1007.8 mb 0.00 in0.0 mm 0.00 in0.0 mm 0.26 in6.6 mm
01:45 PM 59.5°F15.3°C 46.1°F7.8°C 61% 13.5 mph WSW21.7 kmh WSW 23.5 mph37.8 kmh 29.76 in1007.8 mb 0.00 in0.0 mm 0.00 in0.0 mm 0.26 in6.6 mm
01:40 PM 59.5°F15.3°C 46.5°F8.1°C 62% 12.2 mph WSW19.6 kmh WSW 23.5 mph37.8 kmh 29.76 in1007.8 mb 0.00 in0.0 mm 0.00 in0.0 mm 0.26 in6.6 mm
01:35 PM 59.4°F15.2°C 46.4°F8.0°C 62% 11.8 mph WSW19.0 kmh WSW 22.8 mph36.7 kmh 29.76 in1007.8 mb 0.00 in0.0 mm 0.00 in0.0 mm 0.26 in6.6 mm
01:30 PM 58.8°F14.9°C 46.3°F7.9°C 63% 11.6 mph WSW18.7 kmh WSW 22.8 mph36.7 kmh 29.76 in1007.8 mb 0.00 in0.0 mm 0.00 in0.0 mm 0.26 in6.6 mm
01:25 PM 58.5°F14.7°C 45.9°F7.7°C 63% 9.7 mph WSW15.6 kmh WSW 19.7 mph31.7 kmh 29.76 in1007.8 mb 0.00 in0.0 mm 0.00 in0.0 mm 0.26 in6.6 mm
01:20 PM 58.6°F14.8°C 46.1°F7.8°C 63% 9.2 mph WSW14.8 kmh WSW 18.3 mph29.5 kmh 29.76 in1007.8 mb 0.00 in0.0 mm 0.00 in0.0 mm 0.26 in6.6 mm
01:15 PM 58.5°F14.7°C 45.9°F7.7°C 63% 9.8 mph SW15.8 kmh SW 18.3 mph29.5 kmh 29.76 in1007.8 mb 0.00 in0.0 mm 0.00 in0.0 mm 0.26 in6.6 mm
01:05 PM 58.3°F14.6°C 46.2°F7.9°C 64% 10.3 mph SW16.6 kmh SW 20.6 mph33.2 kmh 29.76 in1007.8 mb 0.00 in0.0 mm 0.00 in0.0 mm 0.26 in6.6 mm
01:00 PM 58.1°F14.5°C 45.6°F7.6°C 63% 12.8 mph SW20.6 kmh SW 22.1 mph35.6 kmh 29.76 in1007.8 mb 0.00 in0.0 mm 0.00 in0.0 mm 0.26 in6.6 mm
12:55 PM 57.7°F14.3°C 45.2°F7.3°C 63% 14.0 mph WSW22.5 kmh WSW 22.1 mph35.6 kmh 29.76 in1007.8 mb 0.00 in0.0 mm 0.00 in0.0 mm 0.26 in6.6 mm
12:50 PM 57.7°F14.3°C 45.2°F7.3°C 63% 12.1 mph SW19.5 kmh SW 20.6 mph33.2 kmh 29.76 in1007.8 mb 0.00 in0.0 mm 0.00 in0.0 mm 0.26 in6.6 mm
12:45 PM 57.7°F14.3°C 44.8°F7.1°C 62% 11.4 mph SW18.3 kmh SW 20.6 mph33.2 kmh 29.76 in1007.8 mb 0.00 in0.0 mm 0.00 in0.0 mm 0.26 in6.6 mm
12:40 PM 57.7°F14.3°C 44.8°F7.1°C 62% 11.3 mph SW18.2 kmh SW 19.7 mph31.7 kmh 29.77 in1008.1 mb 0.00 in0.0 mm 0.00 in0.0 mm 0.26 in6.6 mm
12:35 PM 57.6°F14.2°C 44.2°F6.8°C 61% 10.6 mph SW17.1 kmh SW 18.3 mph29.5 kmh 29.76 in1007.8 mb 0.00 in0.0 mm 0.00 in0.0 mm 0.26 in6.6 mm
12:30 PM 57.6°F14.2°C 43.8°F6.6°C 60% 12.2 mph WSW19.6 kmh WSW 23.5 mph37.8 kmh 29.76 in1007.8 mb 0.00 in0.0 mm 0.00 in0.0 mm 0.26 in6.6 mm
12:25 PM 57.9°F14.4°C 43.7°F6.5°C 59% 12.6 mph WSW20.3 kmh WSW 23.5 mph37.8 kmh 29.76 in1007.8 mb 0.00 in0.0 mm 0.00 in0.0 mm 0.26 in6.6 mm
12:20 PM 58.6°F14.8°C 45.2°F7.3°C 61% 12.5 mph SW20.1 kmh SW 24.4 mph39.3 kmh 29.76 in1007.8 mb 0.00 in0.0 mm 0.00 in0.0 mm 0.26 in6.6 mm
12:15 PM 58.1°F14.5°C 44.3°F6.8°C 60% 13.9 mph SW22.4 kmh SW 24.4 mph39.3 kmh 29.76 in1007.8 mb 0.00 in0.0 mm 0.00 in0.0 mm 0.26 in6.6 mm
12:10 PM 58.1°F14.5°C 44.7°F7.1°C 61% 13.5 mph WSW21.7 kmh WSW 24.4 mph39.3 kmh 29.76 in1007.8 mb 0.00 in0.0 mm 0.00 in0.0 mm 0.26 in6.6 mm
12:05 PM 57.7°F14.3°C 44.8°F7.1°C 62% 12.4 mph WSW20.0 kmh WSW 24.4 mph39.3 kmh 29.76 in1007.8 mb 0.00 in0.0 mm 0.00 in0.0 mm 0.26 in6.6 mm
12:00 PM 57.7°F14.3°C 44.4°F6.9°C 61% 12.9 mph WSW20.8 kmh WSW 24.4 mph39.3 kmh 29.76 in1007.8 mb 0.00 in0.0 mm 0.00 in0.0 mm 0.26 in6.6 mm
11:55 AM 57.9°F14.4°C 45.0°F7.2°C 62% 12.3 mph SW19.8 kmh SW 23.5 mph37.8 kmh 29.76 in1007.8 mb 0.00 in0.0 mm 0.00 in0.0 mm 0.26 in6.6 mm
11:50 AM 57.7°F14.3°C 45.7°F7.6°C 64% 11.8 mph SW19.0 kmh SW 22.8 mph36.7 kmh 29.76 in1007.8 mb 0.00 in0.0 mm 0.00 in0.0 mm 0.26 in6.6 mm
11:45 AM 57.6°F14.2°C 45.1°F7.3°C 63% 12.5 mph WSW20.1 kmh WSW 22.8 mph36.7 kmh 29.76 in1007.8 mb 0.00 in0.0 mm 0.00 in0.0 mm 0.26 in6.6 mm
11:40 AM 57.7°F14.3°C 45.2°F7.3°C 63% 12.0 mph WSW19.3 kmh WSW 22.1 mph35.6 kmh 29.76 in1007.8 mb 0.00 in0.0 mm 0.00 in0.0 mm 0.26 in6.6 mm
11:35 AM 57.6°F14.2°C 45.5°F7.5°C 64% 11.0 mph SW17.7 kmh SW 22.1 mph35.6 kmh 29.76 in1007.8 mb 0.00 in0.0 mm 0.00 in0.0 mm 0.26 in6.6 mm
11:30 AM 57.4°F14.1°C 45.3°F7.4°C 64% 9.9 mph WSW15.9 kmh WSW 19.0 mph30.6 kmh 29.76 in1007.8 mb 0.00 in0.0 mm 0.00 in0.0 mm 0.26 in6.6 mm
11:25 AM 57.0°F13.9°C 45.4°F7.4°C 65% 9.4 mph WSW15.1 kmh WSW 23.5 mph37.8 kmh 29.76 in1007.8 mb 0.00 in0.0 mm 0.00 in0.0 mm 0.26 in6.6 mm
11:20 AM 56.3°F13.5°C 44.7°F7.1°C 65% 11.3 mph WSW18.2 kmh WSW 28.2 mph45.4 kmh 29.76 in1007.8 mb 0.00 in0.0 mm 0.00 in0.0 mm 0.26 in6.6 mm
11:15 AM 56.3°F13.5°C 44.7°F7.1°C 65% 14.3 mph SW23.0 kmh SW 28.2 mph45.4 kmh 29.76 in1007.8 mb 0.00 in0.0 mm 0.00 in0.0 mm 0.26 in6.6 mm
11:10 AM 56.1°F13.4°C 44.5°F6.9°C 65% 13.3 mph SW21.4 kmh SW 24.4 mph39.3 kmh 29.76 in1007.8 mb 0.00 in0.0 mm 0.00 in0.0 mm 0.26 in6.6 mm
11:05 AM 55.9°F13.3°C 44.8°F7.1°C 66% 11.5 mph WSW18.5 kmh WSW 23.5 mph37.8 kmh 29.76 in1007.8 mb 0.00 in0.0 mm 0.00 in0.0 mm 0.26 in6.6 mm
10:55 AM 55.4°F13.0°C 43.8°F6.6°C 65% 13.5 mph SW21.7 kmh SW 27.3 mph43.9 kmh 29.76 in1007.8 mb 0.00 in0.0 mm 0.00 in0.0 mm 0.26 in6.6 mm
10:50 AM 55.0°F12.8°C 43.5°F6.4°C 65% 12.0 mph SW19.3 kmh SW 27.3 mph43.9 kmh 29.76 in1007.8 mb 0.00 in0.0 mm 0.00 in0.0 mm 0.26 in6.6 mm
10:45 AM 55.0°F12.8°C 43.5°F6.4°C 65% 11.4 mph WSW18.3 kmh WSW 20.6 mph33.2 kmh 29.76 in1007.8 mb 0.00 in0.0 mm 0.00 in0.0 mm 0.26 in6.6 mm
10:40 AM 54.9°F12.7°C 42.9°F6.1°C 64% 11.4 mph W18.3 kmh W 20.6 mph33.2 kmh 29.76 in1007.8 mb 0.00 in0.0 mm 0.00 in0.0 mm 0.26 in6.6 mm
10:35 AM 54.7°F12.6°C 43.2°F6.2°C 65% 11.2 mph WSW18.0 kmh WSW 21.3 mph34.3 kmh 29.76 in1007.8 mb 0.00 in0.0 mm 0.00 in0.0 mm 0.26 in6.6 mm
10:30 AM 54.3°F12.4°C 42.8°F6.0°C 65% 13.1 mph WSW21.1 kmh WSW 25.1 mph40.4 kmh 29.76 in1007.8 mb 0.00 in0.0 mm 0.00 in0.0 mm 0.26 in6.6 mm
10:25 AM 54.3°F12.4°C 42.8°F6.0°C 65% 14.3 mph WSW23.0 kmh WSW 25.1 mph40.4 kmh 29.76 in1007.8 mb 0.00 in0.0 mm 0.00 in0.0 mm 0.26 in6.6 mm
10:20 AM 54.0°F12.2°C 42.5°F5.8°C 65% 14.4 mph SW23.2 kmh SW 24.4 mph39.3 kmh 29.75 in1007.5 mb 0.00 in0.0 mm 0.00 in0.0 mm 0.26 in6.6 mm
10:15 AM 54.1°F12.3°C 42.6°F5.9°C 65% 14.5 mph SW23.3 kmh SW 24.4 mph39.3 kmh 29.75 in1007.5 mb 0.00 in0.0 mm 0.00 in0.0 mm 0.26 in6.6 mm
10:10 AM 53.8°F12.1°C 42.3°F5.7°C 65% 13.7 mph SW22.0 kmh SW 24.4 mph39.3 kmh 29.75 in1007.5 mb 0.00 in0.0 mm 0.00 in0.0 mm 0.26 in6.6 mm
10:05 AM 53.4°F11.9°C 42.4°F5.8°C 66% 14.4 mph SW23.2 kmh SW 25.9 mph41.7 kmh 29.75 in1007.5 mb 0.00 in0.0 mm 0.00 in0.0 mm 0.26 in6.6 mm
10:00 AM 53.1°F11.7°C 42.4°F5.8°C 67% 14.8 mph SW23.8 kmh SW 25.9 mph41.7 kmh 29.75 in1007.5 mb 0.00 in0.0 mm 0.00 in0.0 mm 0.26 in6.6 mm
09:55 AM 52.9°F11.6°C 42.2°F5.7°C 67% 14.4 mph SW23.2 kmh SW 25.9 mph41.7 kmh 29.75 in1007.5 mb 0.00 in0.0 mm 0.00 in0.0 mm 0.26 in6.6 mm
09:50 AM 52.7°F11.5°C 42.8°F6.0°C 69% 14.1 mph W22.7 kmh W 25.1 mph40.4 kmh 29.74 in1007.1 mb 0.00 in0.0 mm 0.00 in0.0 mm 0.26 in6.6 mm
09:45 AM 52.3°F11.3°C 43.2°F6.2°C 71% 13.7 mph W22.0 kmh W 25.1 mph40.4 kmh 29.74 in1007.1 mb 0.00 in0.0 mm 0.00 in0.0 mm 0.26 in6.6 mm
09:40 AM 52.2°F11.2°C 43.4°F6.3°C 72% 15.7 mph SW25.3 kmh SW 29.8 mph48.0 kmh 29.74 in1007.1 mb 0.00 in0.0 mm 0.00 in0.0 mm 0.26 in6.6 mm
09:35 AM 52.0°F11.1°C 43.6°F6.4°C 73% 15.8 mph SW25.4 kmh SW 29.8 mph48.0 kmh 29.74 in1007.1 mb 0.00 in0.0 mm 0.00 in0.0 mm 0.26 in6.6 mm
09:30 AM 51.8°F11.0°C 43.8°F6.6°C 74% 14.1 mph WSW22.7 kmh WSW 25.1 mph40.4 kmh 29.74 in1007.1 mb 0.00 in0.0 mm 0.00 in0.0 mm 0.26 in6.6 mm
09:25 AM 51.8°F11.0°C 43.8°F6.6°C 74% 13.3 mph WSW21.4 kmh WSW 25.1 mph40.4 kmh 29.74 in1007.1 mb 0.00 in0.0 mm 0.00 in0.0 mm 0.26 in6.6 mm
09:20 AM 51.6°F10.9°C 44.3°F6.8°C 76% 12.6 mph WSW20.3 kmh WSW 24.4 mph39.3 kmh 29.74 in1007.1 mb 0.00 in0.0 mm 0.00 in0.0 mm 0.26 in6.6 mm
09:15 AM 51.3°F10.7°C 44.0°F6.7°C 76% 12.9 mph WSW20.8 kmh WSW 22.8 mph36.7 kmh 29.74 in1007.1 mb 0.00 in0.0 mm 0.00 in0.0 mm 0.26 in6.6 mm
09:10 AM 50.9°F10.5°C 44.3°F6.8°C 78% 13.6 mph WSW21.9 kmh WSW 28.2 mph45.4 kmh 29.74 in1007.1 mb 0.00 in0.0 mm 0.00 in0.0 mm 0.26 in6.6 mm
09:05 AM 50.4°F10.2°C 44.8°F7.1°C 81% 13.8 mph WSW22.2 kmh WSW 28.2 mph45.4 kmh 29.74 in1007.1 mb 0.00 in0.0 mm 0.00 in0.0 mm 0.26 in6.6 mm
09:00 AM 49.8°F9.9°C 45.2°F7.3°C 84% 12.3 mph WSW19.8 kmh WSW 24.4 mph39.3 kmh 29.74 in1007.1 mb 0.00 in0.0 mm 0.00 in0.0 mm 0.26 in6.6 mm
08:55 AM 49.1°F9.5°C 44.8°F7.1°C 85% 10.6 mph SW17.1 kmh SW 15.9 mph25.6 kmh 29.74 in1007.1 mb 0.00 in0.0 mm 0.00 in0.0 mm 0.26 in6.6 mm
08:50 AM 49.1°F9.5°C 44.8°F7.1°C 85% 10.7 mph WSW17.2 kmh WSW 22.1 mph35.6 kmh 29.75 in1007.5 mb 0.00 in0.0 mm 0.00 in0.0 mm 0.26 in6.6 mm
08:45 AM 49.1°F9.5°C 44.5°F6.9°C 84% 11.5 mph WSW18.5 kmh WSW 22.8 mph36.7 kmh 29.75 in1007.5 mb 0.00 in0.0 mm 0.00 in0.0 mm 0.26 in6.6 mm
08:40 AM 49.3°F9.6°C 44.7°F7.1°C 84% 12.4 mph SW20.0 kmh SW 25.1 mph40.4 kmh 29.75 in1007.5 mb 0.00 in0.0 mm 0.00 in0.0 mm 0.26 in6.6 mm
08:35 AM 49.3°F9.6°C 44.7°F7.1°C 84% 10.5 mph WSW16.9 kmh WSW 25.1 mph40.4 kmh 29.75 in1007.5 mb 0.00 in0.0 mm 0.00 in0.0 mm 0.26 in6.6 mm
08:30 AM 49.3°F9.6°C 44.3°F6.8°C 83% 9.5 mph WSW15.3 kmh WSW 19.0 mph30.6 kmh 29.74 in1007.1 mb 0.00 in0.0 mm 0.00 in0.0 mm 0.26 in6.6 mm
08:25 AM 49.5°F9.7°C 44.5°F6.9°C 83% 11.6 mph WSW18.7 kmh WSW 20.6 mph33.2 kmh 29.74 in1007.1 mb 0.00 in0.0 mm 0.00 in0.0 mm 0.26 in6.6 mm
08:20 AM 49.5°F9.7°C 44.8°F7.1°C 84% 12.4 mph SW20.0 kmh SW 21.3 mph34.3 kmh 29.74 in1007.1 mb 0.00 in0.0 mm 0.00 in0.0 mm 0.26 in6.6 mm
08:10 AM 48.6°F9.2°C 44.6°F7.0°C 86% 10.8 mph W17.4 kmh W 22.1 mph35.6 kmh 29.73 in1006.8 mb 0.00 in0.0 mm 0.00 in0.0 mm 0.26 in6.6 mm
08:05 AM 47.8°F8.8°C 44.2°F6.8°C 87% 10.4 mph WSW16.7 kmh WSW 19.0 mph30.6 kmh 29.73 in1006.8 mb 0.00 in0.0 mm 0.00 in0.0 mm 0.26 in6.6 mm
08:00 AM 47.7°F8.7°C 43.7°F6.5°C 86% 11.7 mph W18.8 kmh W 21.3 mph34.3 kmh 29.74 in1007.1 mb 0.00 in0.0 mm 0.00 in0.0 mm 0.26 in6.6 mm
07:55 AM 48.0°F8.9°C 43.7°F6.5°C 85% 12.0 mph WNW19.3 kmh WNW 21.3 mph34.3 kmh 29.73 in1006.8 mb 0.00 in0.0 mm 0.00 in0.0 mm 0.26 in6.6 mm
07:50 AM 48.6°F9.2°C 44.0°F6.7°C 84% 11.3 mph WSW18.2 kmh WSW 18.3 mph29.5 kmh 29.73 in1006.8 mb 0.00 in0.0 mm 0.00 in0.0 mm 0.26 in6.6 mm
07:45 AM 48.6°F9.2°C 43.6°F6.4°C 83% 10.0 mph SW16.1 kmh SW 16.8 mph27.0 kmh 29.73 in1006.8 mb 0.00 in0.0 mm 0.00 in0.0 mm 0.26 in6.6 mm
07:40 AM 48.6°F9.2°C 44.0°F6.7°C 84% 8.1 mph SW13.0 kmh SW 15.9 mph25.6 kmh 29.73 in1006.8 mb 0.00 in0.0 mm 0.00 in0.0 mm 0.26 in6.6 mm
07:35 AM 48.4°F9.1°C 43.8°F6.6°C 84% 7.0 mph SW11.3 kmh SW 15.2 mph24.5 kmh 29.73 in1006.8 mb 0.00 in0.0 mm 0.00 in0.0 mm 0.26 in6.6 mm
07:30 AM 47.8°F8.8°C 43.6°F6.4°C 85% 6.5 mph SW10.5 kmh SW 15.2 mph24.5 kmh 29.72 in1006.4 mb 0.00 in0.0 mm 0.00 in0.0 mm 0.26 in6.6 mm
07:25 AM 47.7°F8.7°C 43.4°F6.3°C 85% 7.4 mph SW11.9 kmh SW 19.0 mph30.6 kmh 29.72 in1006.4 mb 0.00 in0.0 mm 0.00 in0.0 mm 0.26 in6.6 mm
07:20 AM 47.3°F8.5°C 43.0°F6.1°C 85% 8.6 mph SW13.8 kmh SW 19.0 mph30.6 kmh 29.72 in1006.4 mb 0.00 in0.0 mm 0.00 in0.0 mm 0.26 in6.6 mm
07:15 AM 47.3°F8.5°C 43.0°F6.1°C 85% 9.2 mph WSW14.8 kmh WSW 19.0 mph30.6 kmh 29.72 in1006.4 mb 0.00 in0.0 mm 0.00 in0.0 mm 0.26 in6.6 mm
07:10 AM 47.5°F8.6°C 43.2°F6.2°C 85% 10.3 mph W16.6 kmh W 19.0 mph30.6 kmh 29.72 in1006.4 mb 0.00 in0.0 mm 0.00 in0.0 mm 0.26 in6.6 mm
07:05 AM 47.3°F8.5°C 43.0°F6.1°C 85% 10.5 mph W16.9 kmh W 18.3 mph29.5 kmh 29.72 in1006.4 mb 0.00 in0.0 mm 0.00 in0.0 mm 0.26 in6.6 mm
07:00 AM 47.3°F8.5°C 42.7°F5.9°C 84% 9.7 mph WSW15.6 kmh WSW 16.8 mph27.0 kmh 29.71 in1006.1 mb 0.00 in0.0 mm 0.00 in0.0 mm 0.26 in6.6 mm
06:55 AM 47.3°F8.5°C 42.7°F5.9°C 84% 9.0 mph WSW14.5 kmh WSW 15.9 mph25.6 kmh 29.71 in1006.1 mb 0.00 in0.0 mm 0.00 in0.0 mm 0.26 in6.6 mm
06:50 AM 46.9°F8.3°C 42.7°F5.9°C 85% 8.1 mph WSW13.0 kmh WSW 15.2 mph24.5 kmh 29.71 in1006.1 mb 0.00 in0.0 mm 0.00 in0.0 mm 0.26 in6.6 mm
06:45 AM 46.8°F8.2°C 42.5°F5.8°C 85% 6.9 mph SW11.1 kmh SW 14.5 mph23.3 kmh 29.71 in1006.1 mb 0.00 in0.0 mm 0.00 in0.0 mm 0.26 in6.6 mm
06:40 AM 46.4°F8.0°C 42.1°F5.6°C 85% 6.4 mph SW10.3 kmh SW 14.5 mph23.3 kmh 29.71 in1006.1 mb 0.00 in0.0 mm 0.00 in0.0 mm 0.26 in6.6 mm
06:35 AM 46.2°F7.9°C 42.0°F5.6°C 85% 6.4 mph W10.3 kmh W 14.5 mph23.3 kmh 29.71 in1006.1 mb 0.00 in0.0 mm 0.00 in0.0 mm 0.26 in6.6 mm
06:30 AM 46.0°F7.8°C 41.8°F5.4°C 85% 5.7 mph SW9.2 kmh SW 11.4 mph18.3 kmh 29.70 in1005.8 mb 0.00 in0.0 mm 0.00 in0.0 mm 0.26 in6.6 mm
06:25 AM 45.9°F7.7°C 41.6°F5.3°C 85% 5.8 mph SW9.3 kmh SW 17.4 mph28.0 kmh 29.70 in1005.8 mb 0.00 in0.0 mm 0.00 in0.0 mm 0.26 in6.6 mm
06:20 AM 45.9°F7.7°C 41.6°F5.3°C 85% 6.4 mph SW10.3 kmh SW 17.4 mph28.0 kmh 29.70 in1005.8 mb 0.00 in0.0 mm 0.00 in0.0 mm 0.26 in6.6 mm
06:15 AM 45.7°F7.6°C 41.4°F5.2°C 85% 6.0 mph SW9.7 kmh SW 11.4 mph18.3 kmh 29.70 in1005.8 mb 0.00 in0.0 mm 0.00 in0.0 mm 0.26 in6.6 mm
06:10 AM 45.9°F7.7°C 41.6°F5.3°C 85% 6.2 mph WSW10.0 kmh WSW 11.4 mph18.3 kmh 29.70 in1005.8 mb 0.00 in0.0 mm 0.00 in0.0 mm 0.26 in6.6 mm
06:05 AM 45.9°F7.7°C 41.6°F5.3°C 85% 6.9 mph SW11.1 kmh SW 13.6 mph21.9 kmh 29.69 in1005.4 mb 0.00 in0.0 mm 0.00 in0.0 mm 0.26 in6.6 mm
06:00 AM 45.9°F7.7°C 41.6°F5.3°C 85% 6.4 mph S10.3 kmh S 13.6 mph21.9 kmh 29.69 in1005.4 mb 0.00 in0.0 mm 0.00 in0.0 mm 0.26 in6.6 mm
05:55 AM 45.7°F7.6°C 41.7°F5.4°C 86% 6.0 mph SSW9.7 kmh SSW 13.6 mph21.9 kmh 29.68 in1005.1 mb 0.00 in0.0 mm 0.00 in0.0 mm 0.26 in6.6 mm
05:50 AM 45.7°F7.6°C 41.7°F5.4°C 86% 6.6 mph SW10.6 kmh SW 12.1 mph19.5 kmh 29.68 in1005.1 mb 0.00 in0.0 mm 0.00 in0.0 mm 0.26 in6.6 mm
05:45 AM 45.7°F7.6°C 41.7°F5.4°C 86% 7.4 mph SW11.9 kmh SW 14.5 mph23.3 kmh 29.68 in1005.1 mb 0.00 in0.0 mm 0.00 in0.0 mm 0.26 in6.6 mm
05:40 AM 45.7°F7.6°C 41.7°F5.4°C 86% 8.5 mph SW13.7 kmh SW 14.5 mph23.3 kmh 29.69 in1005.4 mb 0.00 in0.0 mm 0.00 in0.0 mm 0.26 in6.6 mm
05:35 AM 45.9°F7.7°C 41.9°F5.5°C 86% 9.3 mph SW15.0 kmh SW 14.5 mph23.3 kmh 29.69 in1005.4 mb 0.00 in0.0 mm 0.00 in0.0 mm 0.26 in6.6 mm
05:30 AM 45.9°F7.7°C 42.5°F5.8°C 88% 9.0 mph SW14.5 kmh SW 15.2 mph24.5 kmh 29.69 in1005.4 mb 0.00 in0.0 mm 0.00 in0.0 mm 0.26 in6.6 mm
05:25 AM 45.9°F7.7°C 42.8°F6.0°C 89% 8.7 mph SW14.0 kmh SW 15.2 mph24.5 kmh 29.69 in1005.4 mb 0.00 in0.0 mm 0.00 in0.0 mm 0.26 in6.6 mm
05:20 AM 45.7°F7.6°C 42.9°F6.1°C 90% 8.7 mph SW14.0 kmh SW 15.9 mph25.6 kmh 29.69 in1005.4 mb 0.00 in0.0 mm 0.00 in0.0 mm 0.26 in6.6 mm
05:15 AM 45.5°F7.5°C 43.0°F6.1°C 91% 8.3 mph SW13.4 kmh SW 15.9 mph25.6 kmh 29.68 in1005.1 mb 0.00 in0.0 mm 0.00 in0.0 mm 0.26 in6.6 mm
05:10 AM 45.5°F7.5°C 43.3°F6.3°C 92% 7.4 mph WSW11.9 kmh WSW 15.2 mph24.5 kmh 29.69 in1005.4 mb 0.00 in0.0 mm 0.00 in0.0 mm 0.26 in6.6 mm
05:05 AM 45.5°F7.5°C 43.3°F6.3°C 92% 7.5 mph WNW12.1 kmh WNW 15.2 mph24.5 kmh 29.69 in1005.4 mb 0.00 in0.0 mm 0.00 in0.0 mm 0.26 in6.6 mm
05:00 AM 45.5°F7.5°C 43.6°F6.4°C 93% 8.3 mph NW13.4 kmh NW 13.6 mph21.9 kmh 29.69 in1005.4 mb 0.00 in0.0 mm 0.00 in0.0 mm 0.26 in6.6 mm
04:55 AM 45.3°F7.4°C 43.4°F6.3°C 93% 8.1 mph W13.0 kmh W 13.6 mph21.9 kmh 29.69 in1005.4 mb 0.00 in0.0 mm 0.00 in0.0 mm 0.26 in6.6 mm
04:50 AM 45.3°F7.4°C 43.4°F6.3°C 93% 7.2 mph W11.6 kmh W 12.1 mph19.5 kmh 29.69 in1005.4 mb 0.00 in0.0 mm 0.00 in0.0 mm 0.26 in6.6 mm
04:45 AM 45.1°F7.3°C 43.2°F6.2°C 93% 6.7 mph WSW10.8 kmh WSW 10.7 mph17.2 kmh 29.69 in1005.4 mb 0.00 in0.0 mm 0.00 in0.0 mm 0.26 in6.6 mm
04:40 AM 45.1°F7.3°C 43.2°F6.2°C 93% 6.7 mph WSW10.8 kmh WSW 15.2 mph24.5 kmh 29.69 in1005.4 mb 0.00 in0.0 mm 0.00 in0.0 mm 0.26 in6.6 mm
04:35 AM 45.3°F7.4°C 43.7°F6.5°C 94% 5.9 mph WSW9.5 kmh WSW 15.2 mph24.5 kmh 29.69 in1005.4 mb 0.00 in0.0 mm 0.00 in0.0 mm 0.26 in6.6 mm
04:30 AM 45.5°F7.5°C 43.9°F6.6°C 94% 5.0 mph W8.0 kmh W 11.4 mph18.3 kmh 29.69 in1005.4 mb 0.00 in0.0 mm 0.00 in0.0 mm 0.26 in6.6 mm
04:25 AM 45.5°F7.5°C 43.9°F6.6°C 94% 5.0 mph W8.0 kmh W 11.4 mph18.3 kmh 29.70 in1005.8 mb 0.00 in0.0 mm 0.00 in0.0 mm 0.26 in6.6 mm
04:20 AM 45.5°F7.5°C 43.9°F6.6°C 94% 5.3 mph W8.5 kmh W 10.7 mph17.2 kmh 29.69 in1005.4 mb 0.00 in0.0 mm 0.00 in0.0 mm 0.26 in6.6 mm
04:15 AM 45.5°F7.5°C 43.9°F6.6°C 94% 6.4 mph WSW10.3 kmh WSW 13.0 mph20.9 kmh 29.69 in1005.4 mb 0.00 in0.0 mm 0.00 in0.0 mm 0.26 in6.6 mm
04:10 AM 45.5°F7.5°C 43.9°F6.6°C 94% 8.0 mph WSW12.9 kmh WSW 13.0 mph20.9 kmh 29.69 in1005.4 mb 0.00 in0.0 mm 0.00 in0.0 mm 0.26 in6.6 mm
04:05 AM 45.5°F7.5°C 43.9°F6.6°C 94% 8.7 mph WSW14.0 kmh WSW 15.9 mph25.6 kmh 29.69 in1005.4 mb 0.00 in0.0 mm 0.00 in0.0 mm 0.26 in6.6 mm
04:00 AM 45.5°F7.5°C 44.2°F6.8°C 95% 8.0 mph WSW12.9 kmh WSW 15.9 mph25.6 kmh 29.69 in1005.4 mb 0.00 in0.0 mm 0.00 in0.0 mm 0.26 in6.6 mm
03:55 AM 45.5°F7.5°C 44.2°F6.8°C 95% 7.4 mph SW11.9 kmh SW 14.5 mph23.3 kmh 29.69 in1005.4 mb 0.00 in0.0 mm 0.00 in0.0 mm 0.26 in6.6 mm
03:50 AM 45.7°F7.6°C 44.3°F6.8°C 95% 7.6 mph WSW12.2 kmh WSW 13.6 mph21.9 kmh 29.69 in1005.4 mb 0.00 in0.0 mm 0.00 in0.0 mm 0.26 in6.6 mm
03:45 AM 45.7°F7.6°C 44.6°F7.0°C 96% 7.3 mph WSW11.7 kmh WSW 13.6 mph21.9 kmh 29.69 in1005.4 mb 0.00 in0.0 mm 0.00 in0.0 mm 0.26 in6.6 mm
03:40 AM 45.7°F7.6°C 44.9°F7.2°C 97% 6.9 mph W11.1 kmh W 13.6 mph21.9 kmh 29.69 in1005.4 mb 0.00 in0.0 mm 0.00 in0.0 mm 0.26 in6.6 mm
03:35 AM 45.5°F7.5°C 44.7°F7.1°C 97% 6.5 mph W10.5 kmh W 13.6 mph21.9 kmh 29.69 in1005.4 mb 0.00 in0.0 mm 0.00 in0.0 mm 0.26 in6.6 mm
03:30 AM 45.5°F7.5°C 44.7°F7.1°C 97% 5.7 mph WSW9.2 kmh WSW 10.7 mph17.2 kmh 29.69 in1005.4 mb 0.00 in0.0 mm 0.00 in0.0 mm 0.26 in6.6 mm
03:25 AM 45.5°F7.5°C 44.7°F7.1°C 97% 6.1 mph W9.8 kmh W 12.1 mph19.5 kmh 29.69 in1005.4 mb 0.00 in0.0 mm 0.00 in0.0 mm 0.26 in6.6 mm
03:20 AM 45.5°F7.5°C 44.7°F7.1°C 97% 7.3 mph WSW11.7 kmh WSW 15.9 mph25.6 kmh 29.69 in1005.4 mb 0.00 in0.0 mm 0.00 in0.0 mm 0.26 in6.6 mm
03:15 AM 45.3°F7.4°C 44.5°F6.9°C 97% 7.0 mph WSW11.3 kmh WSW 15.9 mph25.6 kmh 29.69 in1005.4 mb 0.00 in0.0 mm 0.00 in0.0 mm 0.26 in6.6 mm
03:10 AM 45.3°F7.4°C 44.5°F6.9°C 97% 7.2 mph WSW11.6 kmh WSW 14.5 mph23.3 kmh 29.69 in1005.4 mb 0.00 in0.0 mm 0.00 in0.0 mm 0.26 in6.6 mm
03:05 AM 45.0°F7.2°C 44.2°F6.8°C 97% 6.6 mph SW10.6 kmh SW 14.5 mph23.3 kmh 29.68 in1005.1 mb 0.00 in0.0 mm 0.00 in0.0 mm 0.26 in6.6 mm
03:00 AM 45.0°F7.2°C 44.2°F6.8°C 97% 5.1 mph WSW8.2 kmh WSW 14.5 mph23.3 kmh 29.68 in1005.1 mb 0.00 in0.0 mm 0.00 in0.0 mm 0.26 in6.6 mm
02:55 AM 44.8°F7.1°C 44.0°F6.7°C 97% 5.2 mph W8.4 kmh W 11.4 mph18.3 kmh 29.68 in1005.1 mb 0.00 in0.0 mm 0.00 in0.0 mm 0.26 in6.6 mm
02:50 AM 44.8°F7.1°C 44.0°F6.7°C 97% 5.6 mph WNW9.0 kmh WNW 12.1 mph19.5 kmh 29.68 in1005.1 mb 0.00 in0.0 mm 0.00 in0.0 mm 0.26 in6.6 mm
02:45 AM 45.0°F7.2°C 44.2°F6.8°C 97% 6.7 mph W10.8 kmh W 17.4 mph28.0 kmh 29.68 in1005.1 mb 0.00 in0.0 mm 0.00 in0.0 mm 0.26 in6.6 mm
02:40 AM 45.1°F7.3°C 44.3°F6.8°C 97% 6.7 mph WSW10.8 kmh WSW 17.4 mph28.0 kmh 29.68 in1005.1 mb 0.00 in0.0 mm 0.00 in0.0 mm 0.26 in6.6 mm
02:35 AM 45.1°F7.3°C 44.3°F6.8°C 97% 6.4 mph WSW10.3 kmh WSW 15.2 mph24.5 kmh 29.68 in1005.1 mb 0.00 in0.0 mm 0.00 in0.0 mm 0.26 in6.6 mm
02:30 AM 45.1°F7.3°C 44.3°F6.8°C 97% 6.8 mph WSW10.9 kmh WSW 15.2 mph24.5 kmh 29.68 in1005.1 mb 0.00 in0.0 mm 0.00 in0.0 mm 0.26 in6.6 mm
02:25 AM 45.3°F7.4°C 44.5°F6.9°C 97% 6.6 mph WSW10.6 kmh WSW 13.6 mph21.9 kmh 29.68 in1005.1 mb 0.00 in0.0 mm 0.00 in0.0 mm 0.26 in6.6 mm
02:20 AM 45.3°F7.4°C 44.5°F6.9°C 97% 6.8 mph W10.9 kmh W 13.6 mph21.9 kmh 29.68 in1005.1 mb 0.00 in0.0 mm 0.00 in0.0 mm 0.26 in6.6 mm
02:15 AM 45.3°F7.4°C 44.5°F6.9°C 97% 6.9 mph WSW11.1 kmh WSW 15.9 mph25.6 kmh 29.68 in1005.1 mb 0.00 in0.0 mm 0.00 in0.0 mm 0.26 in6.6 mm
02:10 AM 45.3°F7.4°C 44.5°F6.9°C 97% 6.5 mph W10.5 kmh W 15.9 mph25.6 kmh 29.68 in1005.1 mb 0.00 in0.0 mm 0.00 in0.0 mm 0.26 in6.6 mm
02:05 AM 45.1°F7.3°C 44.3°F6.8°C 97% 5.9 mph WSW9.5 kmh WSW 15.9 mph25.6 kmh 29.68 in1005.1 mb 0.00 in0.0 mm 0.00 in0.0 mm 0.26 in6.6 mm
02:00 AM 45.1°F7.3°C 44.3°F6.8°C 97% 5.6 mph WSW9.0 kmh WSW 10.7 mph17.2 kmh 29.68 in1005.1 mb 0.00 in0.0 mm 0.00 in0.0 mm 0.26 in6.6 mm
01:55 AM 45.1°F7.3°C 44.3°F6.8°C 97% 6.3 mph WNW10.1 kmh WNW 13.6 mph21.9 kmh 29.68 in1005.1 mb 0.00 in0.0 mm 0.00 in0.0 mm 0.26 in6.6 mm
01:50 AM 45.1°F7.3°C 44.3°F6.8°C 97% 6.7 mph W10.8 kmh W 13.6 mph21.9 kmh 29.68 in1005.1 mb 0.00 in0.0 mm 0.00 in0.0 mm 0.26 in6.6 mm
01:45 AM 45.1°F7.3°C 44.3°F6.8°C 97% 7.9 mph W12.7 kmh W 14.5 mph23.3 kmh 29.69 in1005.4 mb 0.00 in0.0 mm 0.00 in0.0 mm 0.26 in6.6 mm
01:40 AM 45.0°F7.2°C 44.2°F6.8°C 97% 9.3 mph WSW15.0 kmh WSW 14.5 mph23.3 kmh 29.69 in1005.4 mb 0.00 in0.0 mm 0.00 in0.0 mm 0.26 in6.6 mm
01:35 AM 44.8°F7.1°C 44.0°F6.7°C 97% 8.7 mph WSW14.0 kmh WSW 14.5 mph23.3 kmh 29.69 in1005.4 mb 0.04 in1.0 mm 0.00 in0.0 mm 0.26 in6.6 mm
01:30 AM 44.8°F7.1°C 44.0°F6.7°C 97% 7.4 mph WSW11.9 kmh WSW 13.6 mph21.9 kmh 29.69 in1005.4 mb 0.06 in1.5 mm 0.00 in0.0 mm 0.26 in6.6 mm
01:25 AM 44.6°F7.0°C 43.8°F6.6°C 97% 6.9 mph W11.1 kmh W 13.0 mph20.9 kmh 29.69 in1005.4 mb 0.10 in2.5 mm 0.00 in0.0 mm 0.26 in6.6 mm
01:20 AM 44.4°F6.9°C 44.4°F6.9°C 100% 6.9 mph WNW11.1 kmh WNW 13.6 mph21.9 kmh 29.69 in1005.4 mb 0.13 in3.3 mm 0.00 in0.0 mm 0.26 in6.6 mm
01:15 AM 44.1°F6.7°C 44.1°F6.7°C 100% 6.2 mph W10.0 kmh W 13.6 mph21.9 kmh 29.69 in1005.4 mb 0.16 in4.1 mm 0.00 in0.0 mm 0.26 in6.6 mm
01:10 AM 43.5°F6.4°C 43.5°F6.4°C 100% 4.8 mph W7.7 kmh W 11.4 mph18.3 kmh 29.68 in1005.1 mb 0.17 in4.3 mm 0.00 in0.0 mm 0.26 in6.6 mm
01:05 AM 43.2°F6.2°C 43.2°F6.2°C 100% 4.3 mph WSW6.9 kmh WSW 9.8 mph15.8 kmh 29.69 in1005.4 mb 0.18 in4.6 mm 0.00 in0.0 mm 0.26 in6.6 mm
01:00 AM 43.0°F6.1°C 43.0°F6.1°C 100% 4.3 mph W6.9 kmh W 9.8 mph15.8 kmh 29.69 in1005.4 mb 0.18 in4.6 mm 0.00 in0.0 mm 0.26 in6.6 mm
12:55 AM 42.6°F5.9°C 42.4°F5.8°C 99% 5.2 mph WNW8.4 kmh WNW 13.0 mph20.9 kmh 29.69 in1005.4 mb 0.20 in5.1 mm 0.00 in0.0 mm 0.79 in20.1 mm
12:50 AM 42.6°F5.9°C 42.4°F5.8°C 99% 6.9 mph W11.1 kmh W 13.0 mph20.9 kmh 29.69 in1005.4 mb 0.20 in5.1 mm 0.00 in0.0 mm 0.79 in20.1 mm
12:45 AM 42.6°F5.9°C 42.4°F5.8°C 99% 6.0 mph WSW9.7 kmh WSW 12.1 mph19.5 kmh 29.69 in1005.4 mb 0.21 in5.3 mm 0.00 in0.0 mm 0.79 in20.1 mm
12:40 AM 43.0°F6.1°C 43.0°F6.1°C 100% 4.9 mph WNW7.9 kmh WNW 12.1 mph19.5 kmh 29.68 in1005.1 mb 0.23 in5.8 mm 0.24 in6.1 mm 0.79 in20.1 mm
12:35 AM 43.2°F6.2°C 43.2°F6.2°C 100% 5.2 mph NW8.4 kmh NW 11.4 mph18.3 kmh 29.69 in1005.4 mb 0.21 in5.3 mm 0.00 in0.0 mm 0.75 in19.1 mm
12:30 AM 43.3°F6.3°C 43.3°F6.3°C 100% 4.7 mph NNW7.6 kmh NNW 10.7 mph17.2 kmh 29.69 in1005.4 mb 0.23 in5.8 mm 0.00 in0.0 mm 0.72 in18.3 mm
12:25 AM 43.3°F6.3°C 43.3°F6.3°C 100% 4.1 mph NW6.6 kmh NW 10.7 mph17.2 kmh 29.69 in1005.4 mb 0.24 in6.1 mm 0.00 in0.0 mm 0.69 in17.5 mm
12:20 AM 43.5°F6.4°C 43.5°F6.4°C 100% 5.2 mph WNW8.4 kmh WNW 12.1 mph19.5 kmh 29.68 in1005.1 mb 0.24 in6.1 mm 0.36 in9.1 mm 0.67 in17.0 mm
12:15 AM 43.5°F6.4°C 42.7°F5.9°C 97% 6.0 mph WNW9.7 kmh WNW 12.1 mph19.5 kmh 29.68 in1005.1 mb 0.21 in5.3 mm 0.12 in3.0 mm 0.64 in16.3 mm
12:10 AM 43.5°F6.4°C 42.7°F5.9°C 97% 6.9 mph NW11.1 kmh NW 14.5 mph23.3 kmh 29.69 in1005.4 mb 0.20 in5.1 mm 0.00 in0.0 mm 0.61 in15.5 mm
12:05 AM 43.3°F6.3°C 42.5°F5.8°C 97% 8.2 mph WNW13.2 kmh WNW 14.5 mph23.3 kmh 29.68 in1005.1 mb 0.20 in5.1 mm 0.00 in0.0 mm 0.61 in15.5 mm
12:00 AM 43.3°F6.3°C 42.3°F5.7°C 96% 8.5 mph WSW13.7 kmh WSW 14.5 mph23.3 kmh 29.68 in1005.1 mb 0.20 in5.1 mm 0.00 in0.0 mm 0.61 in15.5 mm